<?xml version="1.0" encoding="UTF-8" standalone="no" ?>
<gpx xmlns="http://www.topografix.com/GPX/1/1" xmlns:xsi="http://www.w3.org/2001/XMLSchema-instance" xsi:schemaLocation="http://www.topografix.com/GPX/1/1 http://www.topografix.com/GPX/1/1/gpx.xsd" version="1.1" creator="VisuGPX - https://www.visugpx.com">
  <metadata>
    <name>La Chapelle-de-Guinchay Cyclisme</name>
    <desc><![CDATA[Le Mont Brouilly par la montée de la Chapelle.]]></desc>
  </metadata>
  <trk>
    <name><![CDATA[La Chapelle-de-Guinchay Cyclisme]]></name>
    <trkseg>
      <trkpt lat="46.11406" lon="4.67387">
        <ele>245.60000610352</ele>
        <time>2020-07-07T07:19:52.000Z</time>
      </trkpt>
      <trkpt lat="46.11398" lon="4.67386">
        <ele>244.80000305176</ele>
        <time>2020-07-07T07:19:53.000Z</time>
      </trkpt>
      <trkpt lat="46.1139" lon="4.67384">
        <ele>244.39999389648</ele>
        <time>2020-07-07T07:19:54.000Z</time>
      </trkpt>
      <trkpt lat="46.11379" lon="4.67382">
        <ele>244</ele>
        <time>2020-07-07T07:19:56.000Z</time>
      </trkpt>
      <trkpt lat="46.11375" lon="4.6738">
        <ele>244</ele>
        <time>2020-07-07T07:19:57.000Z</time>
      </trkpt>
      <trkpt lat="46.11373" lon="4.67377">
        <ele>244</ele>
        <time>2020-07-07T07:19:58.000Z</time>
      </trkpt>
      <trkpt lat="46.11369" lon="4.67372">
        <ele>244</ele>
        <time>2020-07-07T07:20:00.000Z</time>
      </trkpt>
      <trkpt lat="46.11364" lon="4.67365">
        <ele>244</ele>
        <time>2020-07-07T07:20:02.000Z</time>
      </trkpt>
      <trkpt lat="46.11361" lon="4.6736">
        <ele>243.80000305176</ele>
        <time>2020-07-07T07:20:03.000Z</time>
      </trkpt>
      <trkpt lat="46.11358" lon="4.67356">
        <ele>243.80000305176</ele>
        <time>2020-07-07T07:20:04.000Z</time>
      </trkpt>
      <trkpt lat="46.11352" lon="4.67346">
        <ele>243.39999389648</ele>
        <time>2020-07-07T07:20:06.000Z</time>
      </trkpt>
      <trkpt lat="46.11332" lon="4.67322">
        <ele>242.80000305176</ele>
        <time>2020-07-07T07:20:11.000Z</time>
      </trkpt>
      <trkpt lat="46.11321" lon="4.67308">
        <ele>242.39999389648</ele>
        <time>2020-07-07T07:20:14.000Z</time>
      </trkpt>
      <trkpt lat="46.11313" lon="4.67292">
        <ele>242.19999694824</ele>
        <time>2020-07-07T07:20:17.000Z</time>
      </trkpt>
      <trkpt lat="46.11312" lon="4.67287">
        <ele>242</ele>
        <time>2020-07-07T07:20:18.000Z</time>
      </trkpt>
      <trkpt lat="46.11313" lon="4.67275">
        <ele>242</ele>
        <time>2020-07-07T07:20:20.000Z</time>
      </trkpt>
      <trkpt lat="46.11321" lon="4.67263">
        <ele>242.19999694824</ele>
        <time>2020-07-07T07:20:23.000Z</time>
      </trkpt>
      <trkpt lat="46.11324" lon="4.67259">
        <ele>242.19999694824</ele>
        <time>2020-07-07T07:20:24.000Z</time>
      </trkpt>
      <trkpt lat="46.11331" lon="4.6725">
        <ele>242.39999389648</ele>
        <time>2020-07-07T07:20:26.000Z</time>
      </trkpt>
      <trkpt lat="46.11336" lon="4.67239">
        <ele>242.39999389648</ele>
        <time>2020-07-07T07:20:28.000Z</time>
      </trkpt>
      <trkpt lat="46.11341" lon="4.67227">
        <ele>242.39999389648</ele>
        <time>2020-07-07T07:20:30.000Z</time>
      </trkpt>
      <trkpt lat="46.11348" lon="4.67199">
        <ele>243</ele>
        <time>2020-07-07T07:20:35.000Z</time>
      </trkpt>
      <trkpt lat="46.11352" lon="4.67182">
        <ele>243.80000305176</ele>
        <time>2020-07-07T07:20:38.000Z</time>
      </trkpt>
      <trkpt lat="46.11356" lon="4.67172">
        <ele>244.39999389648</ele>
        <time>2020-07-07T07:20:40.000Z</time>
      </trkpt>
      <trkpt lat="46.11358" lon="4.67166">
        <ele>244.60000610352</ele>
        <time>2020-07-07T07:20:41.000Z</time>
      </trkpt>
      <trkpt lat="46.1136" lon="4.67156">
        <ele>244.80000305176</ele>
        <time>2020-07-07T07:20:43.000Z</time>
      </trkpt>
      <trkpt lat="46.11364" lon="4.67147">
        <ele>245</ele>
        <time>2020-07-07T07:20:45.000Z</time>
      </trkpt>
      <trkpt lat="46.11366" lon="4.67142">
        <ele>245</ele>
        <time>2020-07-07T07:20:46.000Z</time>
      </trkpt>
      <trkpt lat="46.11368" lon="4.67137">
        <ele>245.19999694824</ele>
        <time>2020-07-07T07:20:47.000Z</time>
      </trkpt>
      <trkpt lat="46.11375" lon="4.67124">
        <ele>245.60000610352</ele>
        <time>2020-07-07T07:20:50.000Z</time>
      </trkpt>
      <trkpt lat="46.1138" lon="4.67117">
        <ele>245.80000305176</ele>
        <time>2020-07-07T07:20:52.000Z</time>
      </trkpt>
      <trkpt lat="46.11383" lon="4.67115">
        <ele>246</ele>
        <time>2020-07-07T07:20:53.000Z</time>
      </trkpt>
      <trkpt lat="46.11385" lon="4.67113">
        <ele>246.19999694824</ele>
        <time>2020-07-07T07:20:54.000Z</time>
      </trkpt>
      <trkpt lat="46.11392" lon="4.67109">
        <ele>246.39999389648</ele>
        <time>2020-07-07T07:20:56.000Z</time>
      </trkpt>
      <trkpt lat="46.114" lon="4.67106">
        <ele>246.80000305176</ele>
        <time>2020-07-07T07:20:59.000Z</time>
      </trkpt>
      <trkpt lat="46.11408" lon="4.67105">
        <ele>247.39999389648</ele>
        <time>2020-07-07T07:21:02.000Z</time>
      </trkpt>
      <trkpt lat="46.11417" lon="4.67103">
        <ele>248</ele>
        <time>2020-07-07T07:21:05.000Z</time>
      </trkpt>
      <trkpt lat="46.11425" lon="4.67102">
        <ele>248.60000610352</ele>
        <time>2020-07-07T07:21:08.000Z</time>
      </trkpt>
      <trkpt lat="46.11436" lon="4.67102">
        <ele>249.19999694824</ele>
        <time>2020-07-07T07:21:12.000Z</time>
      </trkpt>
      <trkpt lat="46.11447" lon="4.67102">
        <ele>249.80000305176</ele>
        <time>2020-07-07T07:21:16.000Z</time>
      </trkpt>
      <trkpt lat="46.11455" lon="4.67103">
        <ele>250.19999694824</ele>
        <time>2020-07-07T07:21:19.000Z</time>
      </trkpt>
      <trkpt lat="46.11474" lon="4.67098">
        <ele>251.60000610352</ele>
        <time>2020-07-07T07:21:26.000Z</time>
      </trkpt>
      <trkpt lat="46.11485" lon="4.67079">
        <ele>253</ele>
        <time>2020-07-07T07:21:31.000Z</time>
      </trkpt>
      <trkpt lat="46.11497" lon="4.67049">
        <ele>254.39999389648</ele>
        <time>2020-07-07T07:21:38.000Z</time>
      </trkpt>
      <trkpt lat="46.11505" lon="4.67027">
        <ele>255</ele>
        <time>2020-07-07T07:21:43.000Z</time>
      </trkpt>
      <trkpt lat="46.11511" lon="4.67009">
        <ele>255.80000305176</ele>
        <time>2020-07-07T07:21:47.000Z</time>
      </trkpt>
      <trkpt lat="46.11521" lon="4.66989">
        <ele>256.60000610352</ele>
        <time>2020-07-07T07:21:52.000Z</time>
      </trkpt>
      <trkpt lat="46.11525" lon="4.66981">
        <ele>256.60000610352</ele>
        <time>2020-07-07T07:21:54.000Z</time>
      </trkpt>
      <trkpt lat="46.11541" lon="4.66945">
        <ele>257.39999389648</ele>
        <time>2020-07-07T07:22:03.000Z</time>
      </trkpt>
      <trkpt lat="46.11551" lon="4.66914">
        <ele>259</ele>
        <time>2020-07-07T07:22:10.000Z</time>
      </trkpt>
      <trkpt lat="46.11555" lon="4.669">
        <ele>259.60000610352</ele>
        <time>2020-07-07T07:22:13.000Z</time>
      </trkpt>
      <trkpt lat="46.11557" lon="4.66896">
        <ele>259.79998779297</ele>
        <time>2020-07-07T07:22:14.000Z</time>
      </trkpt>
      <trkpt lat="46.11566" lon="4.66865">
        <ele>260.79998779297</ele>
        <time>2020-07-07T07:22:21.000Z</time>
      </trkpt>
      <trkpt lat="46.11569" lon="4.66856">
        <ele>261</ele>
        <time>2020-07-07T07:22:23.000Z</time>
      </trkpt>
      <trkpt lat="46.11569" lon="4.66851">
        <ele>261</ele>
        <time>2020-07-07T07:22:24.000Z</time>
      </trkpt>
      <trkpt lat="46.11568" lon="4.6683">
        <ele>261.79998779297</ele>
        <time>2020-07-07T07:22:28.000Z</time>
      </trkpt>
      <trkpt lat="46.11567" lon="4.66825">
        <ele>262.20001220703</ele>
        <time>2020-07-07T07:22:29.000Z</time>
      </trkpt>
      <trkpt lat="46.11563" lon="4.66797">
        <ele>263.39999389648</ele>
        <time>2020-07-07T07:22:35.000Z</time>
      </trkpt>
      <trkpt lat="46.11563" lon="4.66793">
        <ele>263.60000610352</ele>
        <time>2020-07-07T07:22:36.000Z</time>
      </trkpt>
      <trkpt lat="46.11562" lon="4.66769">
        <ele>264.20001220703</ele>
        <time>2020-07-07T07:22:41.000Z</time>
      </trkpt>
      <trkpt lat="46.11562" lon="4.66751">
        <ele>264.79998779297</ele>
        <time>2020-07-07T07:22:45.000Z</time>
      </trkpt>
      <trkpt lat="46.11563" lon="4.66733">
        <ele>265</ele>
        <time>2020-07-07T07:22:49.000Z</time>
      </trkpt>
      <trkpt lat="46.11565" lon="4.6672">
        <ele>265.20001220703</ele>
        <time>2020-07-07T07:22:52.000Z</time>
      </trkpt>
      <trkpt lat="46.11565" lon="4.66716">
        <ele>265.20001220703</ele>
        <time>2020-07-07T07:22:53.000Z</time>
      </trkpt>
      <trkpt lat="46.11567" lon="4.66704">
        <ele>265.20001220703</ele>
        <time>2020-07-07T07:22:56.000Z</time>
      </trkpt>
      <trkpt lat="46.11569" lon="4.66692">
        <ele>265.20001220703</ele>
        <time>2020-07-07T07:22:59.000Z</time>
      </trkpt>
      <trkpt lat="46.11571" lon="4.66681">
        <ele>265.20001220703</ele>
        <time>2020-07-07T07:23:02.000Z</time>
      </trkpt>
      <trkpt lat="46.11572" lon="4.66677">
        <ele>265</ele>
        <time>2020-07-07T07:23:03.000Z</time>
      </trkpt>
      <trkpt lat="46.11574" lon="4.66659">
        <ele>265</ele>
        <time>2020-07-07T07:23:08.000Z</time>
      </trkpt>
      <trkpt lat="46.11574" lon="4.66656">
        <ele>265</ele>
        <time>2020-07-07T07:23:09.000Z</time>
      </trkpt>
      <trkpt lat="46.11573" lon="4.66649">
        <ele>265.20001220703</ele>
        <time>2020-07-07T07:23:11.000Z</time>
      </trkpt>
      <trkpt lat="46.11569" lon="4.6664">
        <ele>265.79998779297</ele>
        <time>2020-07-07T07:23:14.000Z</time>
      </trkpt>
      <trkpt lat="46.11562" lon="4.66635">
        <ele>266.60000610352</ele>
        <time>2020-07-07T07:23:17.000Z</time>
      </trkpt>
      <trkpt lat="46.11554" lon="4.66634">
        <ele>267.79998779297</ele>
        <time>2020-07-07T07:23:20.000Z</time>
      </trkpt>
      <trkpt lat="46.11546" lon="4.66635">
        <ele>268.79998779297</ele>
        <time>2020-07-07T07:23:23.000Z</time>
      </trkpt>
      <trkpt lat="46.11532" lon="4.66636">
        <ele>270.79998779297</ele>
        <time>2020-07-07T07:23:28.000Z</time>
      </trkpt>
      <trkpt lat="46.1153" lon="4.66636">
        <ele>271.20001220703</ele>
        <time>2020-07-07T07:23:29.000Z</time>
      </trkpt>
      <trkpt lat="46.11522" lon="4.66637">
        <ele>272.20001220703</ele>
        <time>2020-07-07T07:23:32.000Z</time>
      </trkpt>
      <trkpt lat="46.11515" lon="4.66637">
        <ele>273.39999389648</ele>
        <time>2020-07-07T07:23:35.000Z</time>
      </trkpt>
      <trkpt lat="46.11502" lon="4.66638">
        <ele>275.20001220703</ele>
        <time>2020-07-07T07:23:40.000Z</time>
      </trkpt>
      <trkpt lat="46.11494" lon="4.66638">
        <ele>276.20001220703</ele>
        <time>2020-07-07T07:23:43.000Z</time>
      </trkpt>
      <trkpt lat="46.11492" lon="4.66637">
        <ele>276.39999389648</ele>
        <time>2020-07-07T07:23:44.000Z</time>
      </trkpt>
      <trkpt lat="46.11483" lon="4.6663">
        <ele>277.79998779297</ele>
        <time>2020-07-07T07:23:48.000Z</time>
      </trkpt>
      <trkpt lat="46.11481" lon="4.66627">
        <ele>278.20001220703</ele>
        <time>2020-07-07T07:23:49.000Z</time>
      </trkpt>
      <trkpt lat="46.11472" lon="4.66613">
        <ele>279.79998779297</ele>
        <time>2020-07-07T07:23:54.000Z</time>
      </trkpt>
      <trkpt lat="46.11466" lon="4.66607">
        <ele>280.60000610352</ele>
        <time>2020-07-07T07:23:57.000Z</time>
      </trkpt>
      <trkpt lat="46.11457" lon="4.66598">
        <ele>281.60000610352</ele>
        <time>2020-07-07T07:24:01.000Z</time>
      </trkpt>
      <trkpt lat="46.11449" lon="4.66593">
        <ele>282.60000610352</ele>
        <time>2020-07-07T07:24:04.000Z</time>
      </trkpt>
      <trkpt lat="46.11443" lon="4.66591">
        <ele>283.20001220703</ele>
        <time>2020-07-07T07:24:06.000Z</time>
      </trkpt>
      <trkpt lat="46.11422" lon="4.6658">
        <ele>285.39999389648</ele>
        <time>2020-07-07T07:24:13.000Z</time>
      </trkpt>
      <trkpt lat="46.11419" lon="4.66579">
        <ele>285.79998779297</ele>
        <time>2020-07-07T07:24:14.000Z</time>
      </trkpt>
      <trkpt lat="46.11411" lon="4.66573">
        <ele>286.79998779297</ele>
        <time>2020-07-07T07:24:17.000Z</time>
      </trkpt>
      <trkpt lat="46.11401" lon="4.66567">
        <ele>288</ele>
        <time>2020-07-07T07:24:21.000Z</time>
      </trkpt>
      <trkpt lat="46.11396" lon="4.66563">
        <ele>288.60000610352</ele>
        <time>2020-07-07T07:24:23.000Z</time>
      </trkpt>
      <trkpt lat="46.11386" lon="4.66553">
        <ele>290.20001220703</ele>
        <time>2020-07-07T07:24:28.000Z</time>
      </trkpt>
      <trkpt lat="46.11385" lon="4.66551">
        <ele>290.60000610352</ele>
        <time>2020-07-07T07:24:29.000Z</time>
      </trkpt>
      <trkpt lat="46.11384" lon="4.66548">
        <ele>290.79998779297</ele>
        <time>2020-07-07T07:24:30.000Z</time>
      </trkpt>
      <trkpt lat="46.11386" lon="4.66534">
        <ele>291.39999389648</ele>
        <time>2020-07-07T07:24:34.000Z</time>
      </trkpt>
      <trkpt lat="46.11387" lon="4.6653">
        <ele>291.60000610352</ele>
        <time>2020-07-07T07:24:35.000Z</time>
      </trkpt>
      <trkpt lat="46.1139" lon="4.66524">
        <ele>292</ele>
        <time>2020-07-07T07:24:37.000Z</time>
      </trkpt>
      <trkpt lat="46.11396" lon="4.66514">
        <ele>292.20001220703</ele>
        <time>2020-07-07T07:24:40.000Z</time>
      </trkpt>
      <trkpt lat="46.11417" lon="4.66488">
        <ele>293.20001220703</ele>
        <time>2020-07-07T07:24:48.000Z</time>
      </trkpt>
      <trkpt lat="46.11428" lon="4.66477">
        <ele>293.60000610352</ele>
        <time>2020-07-07T07:24:52.000Z</time>
      </trkpt>
      <trkpt lat="46.11433" lon="4.66471">
        <ele>294</ele>
        <time>2020-07-07T07:24:54.000Z</time>
      </trkpt>
      <trkpt lat="46.11456" lon="4.66451">
        <ele>294.79998779297</ele>
        <time>2020-07-07T07:25:02.000Z</time>
      </trkpt>
      <trkpt lat="46.11459" lon="4.66449">
        <ele>294.79998779297</ele>
        <time>2020-07-07T07:25:03.000Z</time>
      </trkpt>
      <trkpt lat="46.11476" lon="4.66436">
        <ele>295.39999389648</ele>
        <time>2020-07-07T07:25:09.000Z</time>
      </trkpt>
      <trkpt lat="46.11481" lon="4.66431">
        <ele>295.39999389648</ele>
        <time>2020-07-07T07:25:11.000Z</time>
      </trkpt>
      <trkpt lat="46.1149" lon="4.66424">
        <ele>295.39999389648</ele>
        <time>2020-07-07T07:25:14.000Z</time>
      </trkpt>
      <trkpt lat="46.11502" lon="4.66413">
        <ele>295.39999389648</ele>
        <time>2020-07-07T07:25:19.000Z</time>
      </trkpt>
      <trkpt lat="46.11512" lon="4.66404">
        <ele>295.60000610352</ele>
        <time>2020-07-07T07:25:23.000Z</time>
      </trkpt>
      <trkpt lat="46.11519" lon="4.66396">
        <ele>295.39999389648</ele>
        <time>2020-07-07T07:25:26.000Z</time>
      </trkpt>
      <trkpt lat="46.11525" lon="4.66389">
        <ele>295.20001220703</ele>
        <time>2020-07-07T07:25:29.000Z</time>
      </trkpt>
      <trkpt lat="46.11529" lon="4.66379">
        <ele>295.60000610352</ele>
        <time>2020-07-07T07:25:32.000Z</time>
      </trkpt>
      <trkpt lat="46.11528" lon="4.66376">
        <ele>296</ele>
        <time>2020-07-07T07:25:33.000Z</time>
      </trkpt>
      <trkpt lat="46.11519" lon="4.66369">
        <ele>298</ele>
        <time>2020-07-07T07:25:37.000Z</time>
      </trkpt>
      <trkpt lat="46.11515" lon="4.66369">
        <ele>298.60000610352</ele>
        <time>2020-07-07T07:25:38.000Z</time>
      </trkpt>
      <trkpt lat="46.11509" lon="4.66369">
        <ele>299.39999389648</ele>
        <time>2020-07-07T07:25:40.000Z</time>
      </trkpt>
      <trkpt lat="46.11501" lon="4.6637">
        <ele>300.60000610352</ele>
        <time>2020-07-07T07:25:43.000Z</time>
      </trkpt>
      <trkpt lat="46.11498" lon="4.6637">
        <ele>301</ele>
        <time>2020-07-07T07:25:44.000Z</time>
      </trkpt>
      <trkpt lat="46.11489" lon="4.66371">
        <ele>302</ele>
        <time>2020-07-07T07:25:47.000Z</time>
      </trkpt>
      <trkpt lat="46.11474" lon="4.66373">
        <ele>303.79998779297</ele>
        <time>2020-07-07T07:25:52.000Z</time>
      </trkpt>
      <trkpt lat="46.11471" lon="4.66374">
        <ele>304</ele>
        <time>2020-07-07T07:25:53.000Z</time>
      </trkpt>
      <trkpt lat="46.1146" lon="4.66374">
        <ele>305</ele>
        <time>2020-07-07T07:25:57.000Z</time>
      </trkpt>
      <trkpt lat="46.11448" lon="4.66373">
        <ele>306.20001220703</ele>
        <time>2020-07-07T07:26:01.000Z</time>
      </trkpt>
      <trkpt lat="46.11445" lon="4.66373">
        <ele>306.60000610352</ele>
        <time>2020-07-07T07:26:02.000Z</time>
      </trkpt>
      <trkpt lat="46.11431" lon="4.66369">
        <ele>308.39999389648</ele>
        <time>2020-07-07T07:26:07.000Z</time>
      </trkpt>
      <trkpt lat="46.11426" lon="4.66366">
        <ele>309.60000610352</ele>
        <time>2020-07-07T07:26:09.000Z</time>
      </trkpt>
      <trkpt lat="46.11414" lon="4.66362">
        <ele>311.39999389648</ele>
        <time>2020-07-07T07:26:13.000Z</time>
      </trkpt>
      <trkpt lat="46.11396" lon="4.66359">
        <ele>313.79998779297</ele>
        <time>2020-07-07T07:26:19.000Z</time>
      </trkpt>
      <trkpt lat="46.11393" lon="4.6636">
        <ele>314</ele>
        <time>2020-07-07T07:26:20.000Z</time>
      </trkpt>
      <trkpt lat="46.11382" lon="4.66363">
        <ele>314.79998779297</ele>
        <time>2020-07-07T07:26:24.000Z</time>
      </trkpt>
      <trkpt lat="46.11372" lon="4.6637">
        <ele>314.79998779297</ele>
        <time>2020-07-07T07:26:28.000Z</time>
      </trkpt>
      <trkpt lat="46.11367" lon="4.66374">
        <ele>314.79998779297</ele>
        <time>2020-07-07T07:26:30.000Z</time>
      </trkpt>
      <trkpt lat="46.11356" lon="4.66382">
        <ele>315</ele>
        <time>2020-07-07T07:26:34.000Z</time>
      </trkpt>
      <trkpt lat="46.11343" lon="4.66392">
        <ele>315</ele>
        <time>2020-07-07T07:26:39.000Z</time>
      </trkpt>
      <trkpt lat="46.1134" lon="4.66394">
        <ele>315.20001220703</ele>
        <time>2020-07-07T07:26:40.000Z</time>
      </trkpt>
      <trkpt lat="46.1133" lon="4.66401">
        <ele>315.79998779297</ele>
        <time>2020-07-07T07:26:44.000Z</time>
      </trkpt>
      <trkpt lat="46.11317" lon="4.6641">
        <ele>316.60000610352</ele>
        <time>2020-07-07T07:26:49.000Z</time>
      </trkpt>
      <trkpt lat="46.11304" lon="4.66418">
        <ele>318</ele>
        <time>2020-07-07T07:26:54.000Z</time>
      </trkpt>
      <trkpt lat="46.11296" lon="4.66423">
        <ele>319</ele>
        <time>2020-07-07T07:26:57.000Z</time>
      </trkpt>
      <trkpt lat="46.1128" lon="4.66431">
        <ele>321</ele>
        <time>2020-07-07T07:27:03.000Z</time>
      </trkpt>
      <trkpt lat="46.1127" lon="4.66437">
        <ele>322</ele>
        <time>2020-07-07T07:27:07.000Z</time>
      </trkpt>
      <trkpt lat="46.11265" lon="4.6644">
        <ele>322.20001220703</ele>
        <time>2020-07-07T07:27:09.000Z</time>
      </trkpt>
      <trkpt lat="46.11252" lon="4.66447">
        <ele>323.39999389648</ele>
        <time>2020-07-07T07:27:14.000Z</time>
      </trkpt>
      <trkpt lat="46.11243" lon="4.66453">
        <ele>324.20001220703</ele>
        <time>2020-07-07T07:27:18.000Z</time>
      </trkpt>
      <trkpt lat="46.11235" lon="4.66458">
        <ele>325</ele>
        <time>2020-07-07T07:27:22.000Z</time>
      </trkpt>
      <trkpt lat="46.11227" lon="4.66462">
        <ele>325.79998779297</ele>
        <time>2020-07-07T07:27:25.000Z</time>
      </trkpt>
      <trkpt lat="46.11214" lon="4.66467">
        <ele>327.60000610352</ele>
        <time>2020-07-07T07:27:30.000Z</time>
      </trkpt>
      <trkpt lat="46.11209" lon="4.66468">
        <ele>328.39999389648</ele>
        <time>2020-07-07T07:27:32.000Z</time>
      </trkpt>
      <trkpt lat="46.11193" lon="4.66471">
        <ele>331</ele>
        <time>2020-07-07T07:27:38.000Z</time>
      </trkpt>
      <trkpt lat="46.11171" lon="4.66477">
        <ele>334.20001220703</ele>
        <time>2020-07-07T07:27:45.000Z</time>
      </trkpt>
      <trkpt lat="46.11144" lon="4.66481">
        <ele>336.20001220703</ele>
        <time>2020-07-07T07:27:52.000Z</time>
      </trkpt>
      <trkpt lat="46.11122" lon="4.66471">
        <ele>336</ele>
        <time>2020-07-07T07:27:58.000Z</time>
      </trkpt>
      <trkpt lat="46.1112" lon="4.66467">
        <ele>336.39999389648</ele>
        <time>2020-07-07T07:27:59.000Z</time>
      </trkpt>
      <trkpt lat="46.11111" lon="4.66455">
        <ele>338</ele>
        <time>2020-07-07T07:28:03.000Z</time>
      </trkpt>
      <trkpt lat="46.11106" lon="4.66449">
        <ele>338.60000610352</ele>
        <time>2020-07-07T07:28:05.000Z</time>
      </trkpt>
      <trkpt lat="46.11103" lon="4.66443">
        <ele>339.39999389648</ele>
        <time>2020-07-07T07:28:07.000Z</time>
      </trkpt>
      <trkpt lat="46.11095" lon="4.6643">
        <ele>340.79998779297</ele>
        <time>2020-07-07T07:28:11.000Z</time>
      </trkpt>
      <trkpt lat="46.11091" lon="4.66424">
        <ele>341.60000610352</ele>
        <time>2020-07-07T07:28:13.000Z</time>
      </trkpt>
      <trkpt lat="46.11088" lon="4.66416">
        <ele>342.60000610352</ele>
        <time>2020-07-07T07:28:15.000Z</time>
      </trkpt>
      <trkpt lat="46.11081" lon="4.66403">
        <ele>344.20001220703</ele>
        <time>2020-07-07T07:28:19.000Z</time>
      </trkpt>
      <trkpt lat="46.1108" lon="4.66399">
        <ele>344.79998779297</ele>
        <time>2020-07-07T07:28:20.000Z</time>
      </trkpt>
      <trkpt lat="46.11076" lon="4.66389">
        <ele>346.20001220703</ele>
        <time>2020-07-07T07:28:23.000Z</time>
      </trkpt>
      <trkpt lat="46.11071" lon="4.66375">
        <ele>348.20001220703</ele>
        <time>2020-07-07T07:28:27.000Z</time>
      </trkpt>
      <trkpt lat="46.11068" lon="4.66368">
        <ele>348.79998779297</ele>
        <time>2020-07-07T07:28:29.000Z</time>
      </trkpt>
      <trkpt lat="46.11065" lon="4.66358">
        <ele>350.20001220703</ele>
        <time>2020-07-07T07:28:32.000Z</time>
      </trkpt>
      <trkpt lat="46.11059" lon="4.66344">
        <ele>351.79998779297</ele>
        <time>2020-07-07T07:28:36.000Z</time>
      </trkpt>
      <trkpt lat="46.11058" lon="4.66341">
        <ele>352</ele>
        <time>2020-07-07T07:28:37.000Z</time>
      </trkpt>
      <trkpt lat="46.11051" lon="4.66324">
        <ele>352.60000610352</ele>
        <time>2020-07-07T07:28:42.000Z</time>
      </trkpt>
      <trkpt lat="46.11048" lon="4.66317">
        <ele>353</ele>
        <time>2020-07-07T07:28:44.000Z</time>
      </trkpt>
      <trkpt lat="46.11046" lon="4.66309">
        <ele>353.60000610352</ele>
        <time>2020-07-07T07:28:46.000Z</time>
      </trkpt>
      <trkpt lat="46.11038" lon="4.6629">
        <ele>354.60000610352</ele>
        <time>2020-07-07T07:28:51.000Z</time>
      </trkpt>
      <trkpt lat="46.11037" lon="4.66286">
        <ele>354.79998779297</ele>
        <time>2020-07-07T07:28:52.000Z</time>
      </trkpt>
      <trkpt lat="46.11032" lon="4.66275">
        <ele>355</ele>
        <time>2020-07-07T07:28:55.000Z</time>
      </trkpt>
      <trkpt lat="46.11027" lon="4.6626">
        <ele>355.20001220703</ele>
        <time>2020-07-07T07:28:59.000Z</time>
      </trkpt>
      <trkpt lat="46.11025" lon="4.66252">
        <ele>355.60000610352</ele>
        <time>2020-07-07T07:29:01.000Z</time>
      </trkpt>
      <trkpt lat="46.11022" lon="4.66241">
        <ele>356.39999389648</ele>
        <time>2020-07-07T07:29:04.000Z</time>
      </trkpt>
      <trkpt lat="46.1102" lon="4.66231">
        <ele>357.39999389648</ele>
        <time>2020-07-07T07:29:07.000Z</time>
      </trkpt>
      <trkpt lat="46.11019" lon="4.66223">
        <ele>358</ele>
        <time>2020-07-07T07:29:09.000Z</time>
      </trkpt>
      <trkpt lat="46.11018" lon="4.66216">
        <ele>358.79998779297</ele>
        <time>2020-07-07T07:29:11.000Z</time>
      </trkpt>
      <trkpt lat="46.11016" lon="4.66202">
        <ele>360.39999389648</ele>
        <time>2020-07-07T07:29:15.000Z</time>
      </trkpt>
      <trkpt lat="46.11014" lon="4.66192">
        <ele>361.39999389648</ele>
        <time>2020-07-07T07:29:18.000Z</time>
      </trkpt>
      <trkpt lat="46.11012" lon="4.66182">
        <ele>362.39999389648</ele>
        <time>2020-07-07T07:29:21.000Z</time>
      </trkpt>
      <trkpt lat="46.11011" lon="4.66175">
        <ele>363</ele>
        <time>2020-07-07T07:29:23.000Z</time>
      </trkpt>
      <trkpt lat="46.11011" lon="4.66169">
        <ele>363.79998779297</ele>
        <time>2020-07-07T07:29:25.000Z</time>
      </trkpt>
      <trkpt lat="46.11009" lon="4.66157">
        <ele>365.39999389648</ele>
        <time>2020-07-07T07:29:29.000Z</time>
      </trkpt>
      <trkpt lat="46.11009" lon="4.66153">
        <ele>365.79998779297</ele>
        <time>2020-07-07T07:29:30.000Z</time>
      </trkpt>
      <trkpt lat="46.11008" lon="4.66147">
        <ele>366.39999389648</ele>
        <time>2020-07-07T07:29:32.000Z</time>
      </trkpt>
      <trkpt lat="46.11007" lon="4.66139">
        <ele>367.20001220703</ele>
        <time>2020-07-07T07:29:35.000Z</time>
      </trkpt>
      <trkpt lat="46.11008" lon="4.6613">
        <ele>368.20001220703</ele>
        <time>2020-07-07T07:29:38.000Z</time>
      </trkpt>
      <trkpt lat="46.11006" lon="4.6612">
        <ele>369</ele>
        <time>2020-07-07T07:29:41.000Z</time>
      </trkpt>
      <trkpt lat="46.11005" lon="4.66112">
        <ele>369.60000610352</ele>
        <time>2020-07-07T07:29:44.000Z</time>
      </trkpt>
      <trkpt lat="46.11005" lon="4.66109">
        <ele>370</ele>
        <time>2020-07-07T07:29:45.000Z</time>
      </trkpt>
      <trkpt lat="46.11005" lon="4.66097">
        <ele>371.39999389648</ele>
        <time>2020-07-07T07:29:49.000Z</time>
      </trkpt>
      <trkpt lat="46.11004" lon="4.66089">
        <ele>372.20001220703</ele>
        <time>2020-07-07T07:29:52.000Z</time>
      </trkpt>
      <trkpt lat="46.11004" lon="4.66081">
        <ele>373.20001220703</ele>
        <time>2020-07-07T07:29:55.000Z</time>
      </trkpt>
      <trkpt lat="46.11007" lon="4.66075">
        <ele>374.60000610352</ele>
        <time>2020-07-07T07:29:58.000Z</time>
      </trkpt>
      <trkpt lat="46.11012" lon="4.66076">
        <ele>375.60000610352</ele>
        <time>2020-07-07T07:30:01.000Z</time>
      </trkpt>
      <trkpt lat="46.11013" lon="4.66077">
        <ele>375.79998779297</ele>
        <time>2020-07-07T07:30:02.000Z</time>
      </trkpt>
      <trkpt lat="46.11015" lon="4.66079">
        <ele>376</ele>
        <time>2020-07-07T07:30:03.000Z</time>
      </trkpt>
      <trkpt lat="46.11021" lon="4.6609">
        <ele>376</ele>
        <time>2020-07-07T07:30:07.000Z</time>
      </trkpt>
      <trkpt lat="46.11022" lon="4.66092">
        <ele>376</ele>
        <time>2020-07-07T07:30:08.000Z</time>
      </trkpt>
      <trkpt lat="46.11029" lon="4.66102">
        <ele>376.60000610352</ele>
        <time>2020-07-07T07:30:12.000Z</time>
      </trkpt>
      <trkpt lat="46.11031" lon="4.66105">
        <ele>376.60000610352</ele>
        <time>2020-07-07T07:30:13.000Z</time>
      </trkpt>
      <trkpt lat="46.11038" lon="4.66118">
        <ele>376.79998779297</ele>
        <time>2020-07-07T07:30:18.000Z</time>
      </trkpt>
      <trkpt lat="46.11043" lon="4.66126">
        <ele>377</ele>
        <time>2020-07-07T07:30:21.000Z</time>
      </trkpt>
      <trkpt lat="46.11046" lon="4.66131">
        <ele>377.20001220703</ele>
        <time>2020-07-07T07:30:23.000Z</time>
      </trkpt>
      <trkpt lat="46.11055" lon="4.66147">
        <ele>377.79998779297</ele>
        <time>2020-07-07T07:30:29.000Z</time>
      </trkpt>
      <trkpt lat="46.1106" lon="4.66155">
        <ele>378.20001220703</ele>
        <time>2020-07-07T07:30:32.000Z</time>
      </trkpt>
      <trkpt lat="46.11068" lon="4.66169">
        <ele>377.60000610352</ele>
        <time>2020-07-07T07:30:37.000Z</time>
      </trkpt>
      <trkpt lat="46.11071" lon="4.66174">
        <ele>377.39999389648</ele>
        <time>2020-07-07T07:30:39.000Z</time>
      </trkpt>
      <trkpt lat="46.11082" lon="4.6619">
        <ele>377</ele>
        <time>2020-07-07T07:30:45.000Z</time>
      </trkpt>
      <trkpt lat="46.1109" lon="4.662">
        <ele>376.79998779297</ele>
        <time>2020-07-07T07:30:49.000Z</time>
      </trkpt>
      <trkpt lat="46.11101" lon="4.66209">
        <ele>377</ele>
        <time>2020-07-07T07:30:54.000Z</time>
      </trkpt>
      <trkpt lat="46.11105" lon="4.66211">
        <ele>377</ele>
        <time>2020-07-07T07:30:56.000Z</time>
      </trkpt>
      <trkpt lat="46.11109" lon="4.66213">
        <ele>377.20001220703</ele>
        <time>2020-07-07T07:30:58.000Z</time>
      </trkpt>
      <trkpt lat="46.11118" lon="4.66216">
        <ele>377.79998779297</ele>
        <time>2020-07-07T07:31:02.000Z</time>
      </trkpt>
      <trkpt lat="46.11127" lon="4.66219">
        <ele>378.60000610352</ele>
        <time>2020-07-07T07:31:06.000Z</time>
      </trkpt>
      <trkpt lat="46.11134" lon="4.66219">
        <ele>379.20001220703</ele>
        <time>2020-07-07T07:31:09.000Z</time>
      </trkpt>
      <trkpt lat="46.11138" lon="4.66217">
        <ele>380.20001220703</ele>
        <time>2020-07-07T07:31:11.000Z</time>
      </trkpt>
      <trkpt lat="46.1114" lon="4.66215">
        <ele>380.60000610352</ele>
        <time>2020-07-07T07:31:12.000Z</time>
      </trkpt>
      <trkpt lat="46.11144" lon="4.66203">
        <ele>383</ele>
        <time>2020-07-07T07:31:16.000Z</time>
      </trkpt>
      <trkpt lat="46.11143" lon="4.66189">
        <ele>385.20001220703</ele>
        <time>2020-07-07T07:31:21.000Z</time>
      </trkpt>
      <trkpt lat="46.11143" lon="4.66187">
        <ele>385.60000610352</ele>
        <time>2020-07-07T07:31:22.000Z</time>
      </trkpt>
      <trkpt lat="46.11142" lon="4.66176">
        <ele>387.20001220703</ele>
        <time>2020-07-07T07:31:26.000Z</time>
      </trkpt>
      <trkpt lat="46.11141" lon="4.66168">
        <ele>388.39999389648</ele>
        <time>2020-07-07T07:31:29.000Z</time>
      </trkpt>
      <trkpt lat="46.11141" lon="4.66161">
        <ele>389.60000610352</ele>
        <time>2020-07-07T07:31:32.000Z</time>
      </trkpt>
      <trkpt lat="46.11142" lon="4.66153">
        <ele>391</ele>
        <time>2020-07-07T07:31:35.000Z</time>
      </trkpt>
      <trkpt lat="46.11142" lon="4.6615">
        <ele>391.39999389648</ele>
        <time>2020-07-07T07:31:36.000Z</time>
      </trkpt>
      <trkpt lat="46.11142" lon="4.66141">
        <ele>393</ele>
        <time>2020-07-07T07:31:39.000Z</time>
      </trkpt>
      <trkpt lat="46.11143" lon="4.6613">
        <ele>395</ele>
        <time>2020-07-07T07:31:43.000Z</time>
      </trkpt>
      <trkpt lat="46.11143" lon="4.66127">
        <ele>395.60000610352</ele>
        <time>2020-07-07T07:31:44.000Z</time>
      </trkpt>
      <trkpt lat="46.11145" lon="4.66119">
        <ele>397</ele>
        <time>2020-07-07T07:31:47.000Z</time>
      </trkpt>
      <trkpt lat="46.11147" lon="4.66111">
        <ele>397.79998779297</ele>
        <time>2020-07-07T07:31:50.000Z</time>
      </trkpt>
      <trkpt lat="46.11147" lon="4.66109">
        <ele>398</ele>
        <time>2020-07-07T07:31:51.000Z</time>
      </trkpt>
      <trkpt lat="46.11149" lon="4.66099">
        <ele>399.20001220703</ele>
        <time>2020-07-07T07:31:55.000Z</time>
      </trkpt>
      <trkpt lat="46.1115" lon="4.66092">
        <ele>399.79998779297</ele>
        <time>2020-07-07T07:31:58.000Z</time>
      </trkpt>
      <trkpt lat="46.1115" lon="4.66089">
        <ele>400.20001220703</ele>
        <time>2020-07-07T07:31:59.000Z</time>
      </trkpt>
      <trkpt lat="46.11151" lon="4.6608">
        <ele>401</ele>
        <time>2020-07-07T07:32:03.000Z</time>
      </trkpt>
      <trkpt lat="46.11151" lon="4.66078">
        <ele>401.39999389648</ele>
        <time>2020-07-07T07:32:04.000Z</time>
      </trkpt>
      <trkpt lat="46.11153" lon="4.66068">
        <ele>402.39999389648</ele>
        <time>2020-07-07T07:32:08.000Z</time>
      </trkpt>
      <trkpt lat="46.11153" lon="4.66064">
        <ele>402.79998779297</ele>
        <time>2020-07-07T07:32:10.000Z</time>
      </trkpt>
      <trkpt lat="46.11153" lon="4.66058">
        <ele>403.39999389648</ele>
        <time>2020-07-07T07:32:12.000Z</time>
      </trkpt>
      <trkpt lat="46.11152" lon="4.66053">
        <ele>404</ele>
        <time>2020-07-07T07:32:15.000Z</time>
      </trkpt>
      <trkpt lat="46.11151" lon="4.66051">
        <ele>404.20001220703</ele>
        <time>2020-07-07T07:32:16.000Z</time>
      </trkpt>
      <trkpt lat="46.11151" lon="4.66049">
        <ele>404.39999389648</ele>
        <time>2020-07-07T07:32:17.000Z</time>
      </trkpt>
      <trkpt lat="46.11149" lon="4.6604">
        <ele>405.39999389648</ele>
        <time>2020-07-07T07:32:21.000Z</time>
      </trkpt>
      <trkpt lat="46.11148" lon="4.66038">
        <ele>405.60000610352</ele>
        <time>2020-07-07T07:32:22.000Z</time>
      </trkpt>
      <trkpt lat="46.11141" lon="4.66023">
        <ele>406</ele>
        <time>2020-07-07T07:32:29.000Z</time>
      </trkpt>
      <trkpt lat="46.11137" lon="4.66014">
        <ele>406</ele>
        <time>2020-07-07T07:32:32.000Z</time>
      </trkpt>
      <trkpt lat="46.11132" lon="4.66001">
        <ele>405.79998779297</ele>
        <time>2020-07-07T07:32:37.000Z</time>
      </trkpt>
      <trkpt lat="46.11123" lon="4.65973">
        <ele>405.79998779297</ele>
        <time>2020-07-07T07:32:46.000Z</time>
      </trkpt>
      <trkpt lat="46.11123" lon="4.6597">
        <ele>405.79998779297</ele>
        <time>2020-07-07T07:32:47.000Z</time>
      </trkpt>
      <trkpt lat="46.1112" lon="4.65955">
        <ele>406</ele>
        <time>2020-07-07T07:32:52.000Z</time>
      </trkpt>
      <trkpt lat="46.11119" lon="4.65945">
        <ele>406.60000610352</ele>
        <time>2020-07-07T07:32:55.000Z</time>
      </trkpt>
      <trkpt lat="46.11119" lon="4.65942">
        <ele>406.60000610352</ele>
        <time>2020-07-07T07:32:56.000Z</time>
      </trkpt>
      <trkpt lat="46.11117" lon="4.6593">
        <ele>407.39999389648</ele>
        <time>2020-07-07T07:33:00.000Z</time>
      </trkpt>
      <trkpt lat="46.11117" lon="4.65921">
        <ele>407.79998779297</ele>
        <time>2020-07-07T07:33:03.000Z</time>
      </trkpt>
      <trkpt lat="46.11115" lon="4.65912">
        <ele>407.79998779297</ele>
        <time>2020-07-07T07:33:06.000Z</time>
      </trkpt>
      <trkpt lat="46.1111" lon="4.659">
        <ele>407.79998779297</ele>
        <time>2020-07-07T07:33:10.000Z</time>
      </trkpt>
      <trkpt lat="46.11092" lon="4.65882">
        <ele>407.60000610352</ele>
        <time>2020-07-07T07:33:18.000Z</time>
      </trkpt>
      <trkpt lat="46.11072" lon="4.65865">
        <ele>407.79998779297</ele>
        <time>2020-07-07T07:33:25.000Z</time>
      </trkpt>
      <trkpt lat="46.1107" lon="4.65862">
        <ele>408</ele>
        <time>2020-07-07T07:33:26.000Z</time>
      </trkpt>
      <trkpt lat="46.11056" lon="4.65846">
        <ele>410</ele>
        <time>2020-07-07T07:33:32.000Z</time>
      </trkpt>
      <trkpt lat="46.11047" lon="4.65835">
        <ele>412.20001220703</ele>
        <time>2020-07-07T07:33:36.000Z</time>
      </trkpt>
      <trkpt lat="46.11038" lon="4.65824">
        <ele>414.60000610352</ele>
        <time>2020-07-07T07:33:40.000Z</time>
      </trkpt>
      <trkpt lat="46.11034" lon="4.65819">
        <ele>415.60000610352</ele>
        <time>2020-07-07T07:33:42.000Z</time>
      </trkpt>
      <trkpt lat="46.11029" lon="4.6581">
        <ele>417.20001220703</ele>
        <time>2020-07-07T07:33:45.000Z</time>
      </trkpt>
      <trkpt lat="46.11021" lon="4.65796">
        <ele>419.60000610352</ele>
        <time>2020-07-07T07:33:50.000Z</time>
      </trkpt>
      <trkpt lat="46.11019" lon="4.6579">
        <ele>420.60000610352</ele>
        <time>2020-07-07T07:33:52.000Z</time>
      </trkpt>
      <trkpt lat="46.11017" lon="4.65783">
        <ele>421.79998779297</ele>
        <time>2020-07-07T07:33:55.000Z</time>
      </trkpt>
      <trkpt lat="46.11016" lon="4.65781">
        <ele>422.20001220703</ele>
        <time>2020-07-07T07:33:56.000Z</time>
      </trkpt>
      <trkpt lat="46.11015" lon="4.65773">
        <ele>423.79998779297</ele>
        <time>2020-07-07T07:34:00.000Z</time>
      </trkpt>
      <trkpt lat="46.11015" lon="4.6577">
        <ele>424.39999389648</ele>
        <time>2020-07-07T07:34:01.000Z</time>
      </trkpt>
      <trkpt lat="46.11018" lon="4.65748">
        <ele>428</ele>
        <time>2020-07-07T07:34:09.000Z</time>
      </trkpt>
      <trkpt lat="46.11018" lon="4.65738">
        <ele>429</ele>
        <time>2020-07-07T07:34:13.000Z</time>
      </trkpt>
      <trkpt lat="46.11018" lon="4.65737">
        <ele>429.20001220703</ele>
        <time>2020-07-07T07:34:14.000Z</time>
      </trkpt>
      <trkpt lat="46.11021" lon="4.65724">
        <ele>429.39999389648</ele>
        <time>2020-07-07T07:34:20.000Z</time>
      </trkpt>
      <trkpt lat="46.11023" lon="4.65717">
        <ele>429.39999389648</ele>
        <time>2020-07-07T07:34:23.000Z</time>
      </trkpt>
      <trkpt lat="46.11024" lon="4.6571">
        <ele>429.79998779297</ele>
        <time>2020-07-07T07:34:26.000Z</time>
      </trkpt>
      <trkpt lat="46.11024" lon="4.65705">
        <ele>430.20001220703</ele>
        <time>2020-07-07T07:34:28.000Z</time>
      </trkpt>
      <trkpt lat="46.11017" lon="4.65688">
        <ele>433</ele>
        <time>2020-07-07T07:34:38.000Z</time>
      </trkpt>
      <trkpt lat="46.11014" lon="4.65687">
        <ele>434</ele>
        <time>2020-07-07T07:34:40.000Z</time>
      </trkpt>
      <trkpt lat="46.11002" lon="4.65686">
        <ele>436.60000610352</ele>
        <time>2020-07-07T07:34:46.000Z</time>
      </trkpt>
      <trkpt lat="46.10986" lon="4.65683">
        <ele>440.79998779297</ele>
        <time>2020-07-07T07:34:55.000Z</time>
      </trkpt>
      <trkpt lat="46.10981" lon="4.65681">
        <ele>442</ele>
        <time>2020-07-07T07:34:56.000Z</time>
      </trkpt>
      <trkpt lat="46.10965" lon="4.6568">
        <ele>444.39999389648</ele>
        <time>2020-07-07T07:35:02.000Z</time>
      </trkpt>
      <trkpt lat="46.10962" lon="4.65679">
        <ele>444.79998779297</ele>
        <time>2020-07-07T07:35:03.000Z</time>
      </trkpt>
      <trkpt lat="46.1096" lon="4.65678">
        <ele>445.20001220703</ele>
        <time>2020-07-07T07:35:04.000Z</time>
      </trkpt>
      <trkpt lat="46.10949" lon="4.65675">
        <ele>446.60000610352</ele>
        <time>2020-07-07T07:35:08.000Z</time>
      </trkpt>
      <trkpt lat="46.10947" lon="4.65674">
        <ele>447</ele>
        <time>2020-07-07T07:35:09.000Z</time>
      </trkpt>
      <trkpt lat="46.10944" lon="4.65673">
        <ele>447.20001220703</ele>
        <time>2020-07-07T07:35:11.000Z</time>
      </trkpt>
      <trkpt lat="46.10942" lon="4.65672">
        <ele>447.60000610352</ele>
        <time>2020-07-07T07:35:12.000Z</time>
      </trkpt>
      <trkpt lat="46.10939" lon="4.65669">
        <ele>448.20001220703</ele>
        <time>2020-07-07T07:35:14.000Z</time>
      </trkpt>
      <trkpt lat="46.10938" lon="4.65667">
        <ele>448.39999389648</ele>
        <time>2020-07-07T07:35:15.000Z</time>
      </trkpt>
      <trkpt lat="46.10938" lon="4.65664">
        <ele>449</ele>
        <time>2020-07-07T07:35:17.000Z</time>
      </trkpt>
      <trkpt lat="46.10938" lon="4.6566">
        <ele>449.20001220703</ele>
        <time>2020-07-07T07:35:20.000Z</time>
      </trkpt>
      <trkpt lat="46.10938" lon="4.65657">
        <ele>449.60000610352</ele>
        <time>2020-07-07T07:35:23.000Z</time>
      </trkpt>
      <trkpt lat="46.1094" lon="4.65651">
        <ele>449.60000610352</ele>
        <time>2020-07-07T07:35:27.000Z</time>
      </trkpt>
      <trkpt lat="46.10952" lon="4.65636">
        <ele>449.60000610352</ele>
        <time>2020-07-07T07:35:37.000Z</time>
      </trkpt>
      <trkpt lat="46.10956" lon="4.65631">
        <ele>449.60000610352</ele>
        <time>2020-07-07T07:35:39.000Z</time>
      </trkpt>
      <trkpt lat="46.10964" lon="4.65619">
        <ele>449.60000610352</ele>
        <time>2020-07-07T07:35:45.000Z</time>
      </trkpt>
      <trkpt lat="46.10969" lon="4.65613">
        <ele>449.60000610352</ele>
        <time>2020-07-07T07:35:47.000Z</time>
      </trkpt>
      <trkpt lat="46.10968" lon="4.65601">
        <ele>450.39999389648</ele>
        <time>2020-07-07T07:35:55.000Z</time>
      </trkpt>
      <trkpt lat="46.10963" lon="4.65601">
        <ele>451</ele>
        <time>2020-07-07T07:35:58.000Z</time>
      </trkpt>
      <trkpt lat="46.10956" lon="4.65602">
        <ele>452</ele>
        <time>2020-07-07T07:36:02.000Z</time>
      </trkpt>
      <trkpt lat="46.10946" lon="4.65604">
        <ele>453</ele>
        <time>2020-07-07T07:36:08.000Z</time>
      </trkpt>
      <trkpt lat="46.10944" lon="4.65604">
        <ele>453.20001220703</ele>
        <time>2020-07-07T07:36:09.000Z</time>
      </trkpt>
      <trkpt lat="46.10941" lon="4.65603">
        <ele>453.60000610352</ele>
        <time>2020-07-07T07:36:10.000Z</time>
      </trkpt>
      <trkpt lat="46.10934" lon="4.65602">
        <ele>454.60000610352</ele>
        <time>2020-07-07T07:36:14.000Z</time>
      </trkpt>
      <trkpt lat="46.10918" lon="4.65597">
        <ele>457</ele>
        <time>2020-07-07T07:36:22.000Z</time>
      </trkpt>
      <trkpt lat="46.10912" lon="4.65595">
        <ele>457.79998779297</ele>
        <time>2020-07-07T07:36:25.000Z</time>
      </trkpt>
      <trkpt lat="46.10905" lon="4.65591">
        <ele>459</ele>
        <time>2020-07-07T07:36:28.000Z</time>
      </trkpt>
      <trkpt lat="46.10898" lon="4.65589">
        <ele>460</ele>
        <time>2020-07-07T07:36:31.000Z</time>
      </trkpt>
      <trkpt lat="46.10891" lon="4.65582">
        <ele>461.39999389648</ele>
        <time>2020-07-07T07:36:35.000Z</time>
      </trkpt>
      <trkpt lat="46.10889" lon="4.65577">
        <ele>462</ele>
        <time>2020-07-07T07:36:37.000Z</time>
      </trkpt>
      <trkpt lat="46.10889" lon="4.65571">
        <ele>462.60000610352</ele>
        <time>2020-07-07T07:36:40.000Z</time>
      </trkpt>
      <trkpt lat="46.1089" lon="4.65566">
        <ele>462.79998779297</ele>
        <time>2020-07-07T07:36:42.000Z</time>
      </trkpt>
      <trkpt lat="46.10892" lon="4.65563">
        <ele>462.79998779297</ele>
        <time>2020-07-07T07:36:44.000Z</time>
      </trkpt>
      <trkpt lat="46.10894" lon="4.65559">
        <ele>463</ele>
        <time>2020-07-07T07:36:46.000Z</time>
      </trkpt>
      <trkpt lat="46.10896" lon="4.65555">
        <ele>463.20001220703</ele>
        <time>2020-07-07T07:36:48.000Z</time>
      </trkpt>
      <trkpt lat="46.10896" lon="4.6555">
        <ele>463.39999389648</ele>
        <time>2020-07-07T07:36:50.000Z</time>
      </trkpt>
      <trkpt lat="46.10899" lon="4.65544">
        <ele>463.60000610352</ele>
        <time>2020-07-07T07:36:53.000Z</time>
      </trkpt>
      <trkpt lat="46.10902" lon="4.65539">
        <ele>463.60000610352</ele>
        <time>2020-07-07T07:36:56.000Z</time>
      </trkpt>
      <trkpt lat="46.10907" lon="4.65531">
        <ele>463.60000610352</ele>
        <time>2020-07-07T07:37:00.000Z</time>
      </trkpt>
      <trkpt lat="46.10912" lon="4.65523">
        <ele>463.79998779297</ele>
        <time>2020-07-07T07:37:04.000Z</time>
      </trkpt>
      <trkpt lat="46.10914" lon="4.65519">
        <ele>464.20001220703</ele>
        <time>2020-07-07T07:37:06.000Z</time>
      </trkpt>
      <trkpt lat="46.10915" lon="4.65511">
        <ele>465</ele>
        <time>2020-07-07T07:37:09.000Z</time>
      </trkpt>
      <trkpt lat="46.10914" lon="4.65508">
        <ele>465.39999389648</ele>
        <time>2020-07-07T07:37:10.000Z</time>
      </trkpt>
      <trkpt lat="46.10911" lon="4.65505">
        <ele>466.20001220703</ele>
        <time>2020-07-07T07:37:12.000Z</time>
      </trkpt>
      <trkpt lat="46.1091" lon="4.65504">
        <ele>466.60000610352</ele>
        <time>2020-07-07T07:37:13.000Z</time>
      </trkpt>
      <trkpt lat="46.10904" lon="4.65501">
        <ele>467.60000610352</ele>
        <time>2020-07-07T07:37:17.000Z</time>
      </trkpt>
      <trkpt lat="46.10902" lon="4.65501">
        <ele>468</ele>
        <time>2020-07-07T07:37:18.000Z</time>
      </trkpt>
      <trkpt lat="46.10895" lon="4.655">
        <ele>469</ele>
        <time>2020-07-07T07:37:21.000Z</time>
      </trkpt>
      <trkpt lat="46.10891" lon="4.65501">
        <ele>469.39999389648</ele>
        <time>2020-07-07T07:37:23.000Z</time>
      </trkpt>
      <trkpt lat="46.10885" lon="4.655">
        <ele>469.79998779297</ele>
        <time>2020-07-07T07:37:26.000Z</time>
      </trkpt>
      <trkpt lat="46.10883" lon="4.65499">
        <ele>470</ele>
        <time>2020-07-07T07:37:27.000Z</time>
      </trkpt>
      <trkpt lat="46.10873" lon="4.65499">
        <ele>470.39999389648</ele>
        <time>2020-07-07T07:37:32.000Z</time>
      </trkpt>
      <trkpt lat="46.10871" lon="4.65499">
        <ele>470.60000610352</ele>
        <time>2020-07-07T07:37:33.000Z</time>
      </trkpt>
      <trkpt lat="46.10855" lon="4.65495">
        <ele>471.79998779297</ele>
        <time>2020-07-07T07:37:41.000Z</time>
      </trkpt>
      <trkpt lat="46.10844" lon="4.65491">
        <ele>473</ele>
        <time>2020-07-07T07:37:47.000Z</time>
      </trkpt>
      <trkpt lat="46.10842" lon="4.65491">
        <ele>473.20001220703</ele>
        <time>2020-07-07T07:37:48.000Z</time>
      </trkpt>
      <trkpt lat="46.10839" lon="4.65488">
        <ele>473.79998779297</ele>
        <time>2020-07-07T07:37:50.000Z</time>
      </trkpt>
      <trkpt lat="46.10835" lon="4.65481">
        <ele>474.60000610352</ele>
        <time>2020-07-07T07:37:54.000Z</time>
      </trkpt>
      <trkpt lat="46.1083" lon="4.65475">
        <ele>475.60000610352</ele>
        <time>2020-07-07T07:37:58.000Z</time>
      </trkpt>
      <trkpt lat="46.10828" lon="4.65474">
        <ele>475.79998779297</ele>
        <time>2020-07-07T07:37:59.000Z</time>
      </trkpt>
      <trkpt lat="46.10823" lon="4.65469">
        <ele>476.60000610352</ele>
        <time>2020-07-07T07:38:02.000Z</time>
      </trkpt>
      <trkpt lat="46.10821" lon="4.65467">
        <ele>477</ele>
        <time>2020-07-07T07:38:03.000Z</time>
      </trkpt>
      <trkpt lat="46.10818" lon="4.65466">
        <ele>477.39999389648</ele>
        <time>2020-07-07T07:38:04.000Z</time>
      </trkpt>
      <trkpt lat="46.10813" lon="4.65465">
        <ele>478</ele>
        <time>2020-07-07T07:38:06.000Z</time>
      </trkpt>
      <trkpt lat="46.10809" lon="4.65464">
        <ele>478.20001220703</ele>
        <time>2020-07-07T07:38:08.000Z</time>
      </trkpt>
      <trkpt lat="46.10806" lon="4.65464">
        <ele>478.20001220703</ele>
        <time>2020-07-07T07:38:09.000Z</time>
      </trkpt>
      <trkpt lat="46.10801" lon="4.65464">
        <ele>478</ele>
        <time>2020-07-07T07:38:11.000Z</time>
      </trkpt>
      <trkpt lat="46.10793" lon="4.65466">
        <ele>477.60000610352</ele>
        <time>2020-07-07T07:38:15.000Z</time>
      </trkpt>
      <trkpt lat="46.10786" lon="4.65468">
        <ele>477.20001220703</ele>
        <time>2020-07-07T07:38:18.000Z</time>
      </trkpt>
      <trkpt lat="46.10784" lon="4.65469">
        <ele>477</ele>
        <time>2020-07-07T07:38:19.000Z</time>
      </trkpt>
      <trkpt lat="46.1078" lon="4.65472">
        <ele>476.79998779297</ele>
        <time>2020-07-07T07:38:21.000Z</time>
      </trkpt>
      <trkpt lat="46.10772" lon="4.65478">
        <ele>476</ele>
        <time>2020-07-07T07:38:25.000Z</time>
      </trkpt>
      <trkpt lat="46.10769" lon="4.65482">
        <ele>475.79998779297</ele>
        <time>2020-07-07T07:38:27.000Z</time>
      </trkpt>
      <trkpt lat="46.10766" lon="4.65488">
        <ele>475.20001220703</ele>
        <time>2020-07-07T07:38:30.000Z</time>
      </trkpt>
      <trkpt lat="46.10761" lon="4.65495">
        <ele>475.39999389648</ele>
        <time>2020-07-07T07:38:33.000Z</time>
      </trkpt>
      <trkpt lat="46.10757" lon="4.65503">
        <ele>475.79998779297</ele>
        <time>2020-07-07T07:38:36.000Z</time>
      </trkpt>
    </trkseg>
  </trk>
</gpx>